Time;durP1;ratioP1;P1;durP2;ratioP2;P2;SDS_P1;SDS_P2;PMS_P1;PMS_P2;Temp;Humidity;BMP_temperature;BMP_pressure;BME280_temperature;BME280_humidity;BME280_pressure;Samples;Min_cycle;Max_cycle;Signal;HPM_P1;HPM_P2
2023/05/05 00:00:22;;;;;;;6.57;4.80;;;9.20;77.60;;;;;;6264483;28;20190;-64
2023/05/05 00:03:24;;;;;;;5.07;4.57;;;9.10;77.50;;;;;;6298956;28;20188;-64
2023/05/05 00:06:24;;;;;;;8.17;4.87;;;9.00;77.50;;;;;;6274551;28;20220;-64
2023/05/05 00:09:25;;;;;;;6.77;4.80;;;9.00;77.80;;;;;;6280741;28;20189;-64
2023/05/05 00:12:26;;;;;;;5.43;4.70;;;9.00;78.10;;;;;;6282516;28;20188;-64
2023/05/05 00:15:26;;;;;;;6.20;5.17;;;9.00;78.10;;;;;;6270571;28;20280;-64
2023/05/05 00:18:28;;;;;;;4.73;4.33;;;9.00;78.40;;;;;;6272522;28;20189;-64
2023/05/05 00:21:29;;;;;;;5.37;4.83;;;8.90;78.40;;;;;;6299256;28;20242;-64
2023/05/05 00:24:29;;;;;;;6.00;5.20;;;8.90;78.60;;;;;;6283541;28;20264;-64
2023/05/05 00:27:30;;;;;;;6.73;5.80;;;8.90;79.00;;;;;;6281610;28;20193;-64
2023/05/05 00:30:31;;;;;;;7.70;4.93;;;8.90;78.70;;;;;;6288207;28;20213;-64
2023/05/05 00:33:31;;;;;;;6.33;5.17;;;8.90;78.80;;;;;;6290733;28;20188;-64
2023/05/05 00:36:32;;;;;;;7.07;5.30;;;8.80;79.00;;;;;;6269060;28;20236;-64
2023/05/05 00:39:33;;;;;;;5.13;4.63;;;8.70;79.30;;;;;;6295649;28;20196;-64
2023/05/05 00:42:41;;;;;;;7.40;4.97;;;8.60;79.60;;;;;;6277243;28;20214;-64
2023/05/05 00:45:46;;;;;;;5.90;5.33;;;;;;;;;;6292082;28;20249;-64
2023/05/05 00:48:47;;;;;;;6.73;4.73;;;;;;;;;;6297700;28;20197;-64
2023/05/05 00:51:48;;;;;;;6.50;5.00;;;;;;;;;;6296070;28;20629;-65
2023/05/05 00:54:49;;;;;;;5.30;4.80;;;;;;;;;;6296271;28;20230;-65
2023/05/05 00:57:50;;;;;;;5.23;4.73;;;;;;;;;;6295965;28;20193;-65
2023/05/05 01:00:51;;;;;;;5.70;4.70;;;;;;;;;;6306015;28;20189;-64
2023/05/05 01:03:52;;;;;;;7.57;5.10;;;;;;;;;;6322311;28;20237;-64
2023/05/05 01:07:02;;;;;;;5.37;4.77;;;;;;;;;;6306438;28;20215;-65
2023/05/05 01:10:17;;;;;;;5.27;4.77;;;;;;;;;;6317285;28;20183;-65
2023/05/05 01:13:24;;;;;;;5.27;4.73;;;;;;;;;;6307493;28;20240;-64
2023/05/05 01:16:27;;;;;;;6.70;5.27;;;;;;;;;;6305733;28;20238;-65
2023/05/05 01:19:47;;;;;;;5.70;5.20;;;;;;;;;;6310195;28;20185;-65
2023/05/05 01:22:53;;;;;;;6.23;4.90;;;;;;;;;;6299067;28;20268;-65
2023/05/05 01:26:19;;;;;;;5.67;4.50;;;;;;;;;;6290668;28;20206;-65
2023/05/05 01:29:27;;;;;;;5.00;4.60;;;;;;;;;;6308089;28;20205;-64
2023/05/05 01:32:31;;;;;;;5.43;4.80;;;;;;;;;;6294575;28;20185;-64
2023/05/05 01:35:43;;;;;;;7.47;5.03;;;;;;;;;;6318095;28;20260;-65
2023/05/05 01:38:45;;;;;;;5.00;4.33;;;;;;;;;;6310235;28;20201;-64
2023/05/05 01:41:48;;;;;;;5.37;4.87;;;;;;;;;;6305761;28;20192;-64
2023/05/05 01:44:51;;;;;;;6.03;4.73;;;;;;;;;;6308297;28;20300;-65
2023/05/05 01:47:54;;;;;;;5.90;4.50;;;;;;;;;;6309193;28;20191;-65
2023/05/05 01:50:56;;;;;;;5.27;4.77;;;;;;;;;;6327468;28;20190;-64
2023/05/05 01:53:58;;;;;;;6.93;5.13;;;;;;;;;;6327252;28;20199;-64
2023/05/05 01:57:03;;;;;;;7.63;4.83;;;;;;;;;;6303243;28;20200;-64
2023/05/05 02:00:05;;;;;;;6.83;4.73;;;;;;;;;;6299942;28;20216;-64
2023/05/05 02:03:07;;;;;;;5.80;5.27;;;;;;;;;;6295829;28;20193;-64
2023/05/05 02:06:09;;;;;;;6.07;5.23;;;;;;;;;;6313176;28;20230;-64
2023/05/05 02:09:12;;;;;;;6.43;4.90;;;;;;;;;;6321784;28;20195;-64
2023/05/05 02:12:13;;;;;;;6.57;5.00;;;;;;;;;;6301866;28;20181;-64
2023/05/05 02:15:15;;;;;;;5.87;4.90;;;;;;;;;;6301555;28;20224;-64
2023/05/05 02:18:17;;;;;;;5.83;4.93;;;;;;;;;;6278495;28;20225;-64
2023/05/05 02:21:19;;;;;;;6.90;5.37;;;;;;;;;;6316296;28;20201;-64
2023/05/05 02:24:20;;;;;;;6.13;4.80;;;;;;;;;;6278227;28;20205;-64
2023/05/05 02:27:22;;;;;;;9.10;5.47;;;;;;;;;;6294166;28;20189;-64
2023/05/05 02:30:24;;;;;;;9.80;5.70;;;;;;;;;;6308965;28;20185;-64
2023/05/05 02:33:26;;;;;;;7.00;5.13;;;;;;;;;;6299063;28;20277;-64
2023/05/05 02:36:29;;;;;;;6.67;4.37;;;;;;;;;;6285299;28;20269;-64
2023/05/05 02:39:31;;;;;;;7.77;5.43;;;;;;;;;;6299325;28;20220;-64
2023/05/05 02:42:36;;;;;;;9.27;5.67;;;;;;;;;;6326275;28;20189;-64
2023/05/05 02:45:38;;;;;;;6.40;5.60;;;;;;;;;;6307347;28;20216;-64
2023/05/05 02:48:39;;;;;;;7.37;5.87;;;;;;;;;;6306337;28;20272;-64
2023/05/05 02:51:40;;;;;;;8.93;5.77;;;;;;;;;;6294946;28;20202;-65
2023/05/05 02:54:41;;;;;;;5.87;5.10;;;;;;;;;;6302301;28;20204;-64
2023/05/05 02:57:42;;;;;;;6.13;5.47;;;;;;;;;;6292418;28;20280;-64
2023/05/05 03:00:55;;;;;;;6.60;5.10;;;;;;;;;;6321783;28;20329;-65
2023/05/05 03:04:04;;;;;;;6.23;5.60;;;;;;;;;;6300176;28;20189;-64
2023/05/05 03:07:08;;;;;;;5.57;5.03;;;;;;;;;;6297453;28;20256;-64
2023/05/05 03:10:15;;;;;;;5.70;5.20;;;;;;;;;;6316996;28;20190;-64
2023/05/05 03:13:17;;;;;;;6.47;5.37;;;;;;;;;;6315063;28;20238;-64
2023/05/05 03:16:18;;;;;;;6.23;5.63;;;;;;;;;;6290613;28;20188;-64
2023/05/05 03:19:20;;;;;;;5.70;5.10;;;7.70;82.60;;;;;;6303564;28;20200;-64
2023/05/05 03:22:21;;;;;;;6.10;5.43;;;7.60;82.90;;;;;;6290167;28;20250;-62
2023/05/05 03:25:21;;;;;;;5.53;5.07;;;7.60;83.00;;;;;;6298739;28;20212;-61
2023/05/05 03:28:22;;;;;;;5.83;5.33;;;7.60;82.90;;;;;;6292067;28;20187;-62
2023/05/05 03:31:23;;;;;;;6.23;5.63;;;7.60;82.90;;;;;;6295476;28;20207;-62
2023/05/05 03:34:23;;;;;;;8.43;5.40;;;7.60;82.50;;;;;;6274980;28;20223;-62
2023/05/05 03:37:26;;;;;;;6.90;6.20;;;;;;;;;;6283580;28;20237;-62
2023/05/05 03:40:27;;;;;;;6.40;4.70;;;;;;;;;;6303780;28;20218;-62
2023/05/05 03:43:28;;;;;;;6.53;5.13;;;;;;;;;;6297117;28;20190;-62
2023/05/05 03:46:29;;;;;;;7.40;5.40;;;;;;;;;;6296767;28;20233;-62
2023/05/05 03:49:30;;;;;;;8.33;5.30;;;;;;;;;;6294188;28;20211;-62
2023/05/05 03:52:31;;;;;;;6.97;5.47;;;;;;;;;;6311864;28;20180;-62
2023/05/05 03:55:32;;;;;;;5.83;5.23;;;;;;;;;;6302618;28;20186;-62
2023/05/05 03:58:33;;;;;;;7.03;5.10;;;;;;;;;;6290867;28;20201;-63
2023/05/05 04:01:34;;;;;;;6.97;5.70;;;;;;;;;;6320194;28;20387;-62
2023/05/05 04:04:35;;;;;;;6.00;5.40;;;;;;;;;;6273432;28;20213;-60
2023/05/05 04:07:36;;;;;;;5.83;5.23;;;;;;;;;;6293519;28;20191;-62
2023/05/05 04:10:37;;;;;;;6.50;5.10;;;;;;;;;;6274177;28;20186;-61
2023/05/05 04:13:39;;;;;;;6.07;5.43;;;;;;;;;;6303206;28;20234;-63
2023/05/05 04:16:40;;;;;;;5.93;5.33;;;;;;;;;;6281904;28;20193;-62
2023/05/05 04:19:41;;;;;;;6.03;5.43;;;;;;;;;;6289808;28;20339;-62
2023/05/05 04:22:42;;;;;;;5.97;5.30;;;;;;;;;;6293472;28;20208;-62
2023/05/05 04:25:43;;;;;;;6.10;5.30;;;;;;;;;;6309192;28;20211;-62
2023/05/05 04:28:44;;;;;;;7.50;6.00;;;;;;;;;;6298261;28;20196;-61
2023/05/05 04:31:45;;;;;;;8.93;5.97;;;;;;;;;;6291665;28;20192;-62
2023/05/05 04:34:46;;;;;;;8.23;5.77;;;;;;;;;;6275141;28;20204;-61
2023/05/05 04:37:47;;;;;;;6.27;5.67;;;;;;;;;;6284354;28;20242;-62
2023/05/05 04:40:48;;;;;;;7.47;6.00;;;;;;;;;;6305020;28;20254;-65
2023/05/05 04:43:49;;;;;;;7.77;6.17;;;;;;;;;;6307095;28;20192;-62
2023/05/05 04:46:50;;;;;;;6.10;5.43;;;;;;;;;;6281411;28;20226;-62
2023/05/05 04:49:53;;;;;;;6.20;5.60;;;;;;;;;;6290058;28;20208;-64
2023/05/05 04:52:55;;;;;;;7.57;5.43;;;;;;;;;;6295426;28;20192;-62
2023/05/05 04:55:56;;;;;;;8.47;6.00;;;;;;;;;;6302361;28;20240;-62
2023/05/05 04:58:57;;;;;;;5.97;5.37;;;;;;;;;;6300560;28;20197;-62
2023/05/05 05:01:58;;;;;;;7.17;6.10;;;;;;;;;;6284155;28;20249;-62
2023/05/05 05:04:59;;;;;;;5.53;4.90;;;;;;;;;;6290459;28;20298;-63
2023/05/05 05:08:00;;;;;;;6.40;5.57;;;;;;;;;;6292690;28;20276;-62
2023/05/05 05:11:01;;;;;;;6.17;5.57;;;;;;;;;;6282770;28;20194;-62
2023/05/05 05:14:02;;;;;;;7.17;5.73;;;;;;;;;;6285390;28;20216;-62
2023/05/05 05:17:03;;;;;;;6.77;6.03;;;;;;;;;;6288632;28;20204;-62
2023/05/05 05:20:05;;;;;;;7.33;5.83;;;;;;;;;;6301563;28;20222;-62
2023/05/05 05:23:06;;;;;;;5.90;4.93;;;;;;;;;;6309796;28;20192;-61
2023/05/05 05:26:07;;;;;;;7.07;6.33;;;;;;;;;;6274830;28;20307;-62
2023/05/05 05:29:09;;;;;;;7.37;6.17;;;;;;;;;;6302786;28;20268;-62
2023/05/05 05:32:10;;;;;;;7.60;6.80;;;;;;;;;;6292190;28;20192;-63
2023/05/05 05:35:11;;;;;;;6.63;5.90;;;;;;;;;;6290354;28;20208;-62
2023/05/05 05:38:12;;;;;;;6.73;5.53;;;;;;;;;;6288266;28;20233;-62
2023/05/05 05:41:13;;;;;;;6.23;5.47;;;;;;;;;;6316129;28;20199;-62
2023/05/05 05:44:14;;;;;;;6.20;5.60;;;;;;;;;;6294496;28;20193;-62
2023/05/05 05:47:15;;;;;;;9.73;5.87;;;;;;;;;;6279140;28;20270;-62
2023/05/05 05:50:16;;;;;;;6.70;5.80;;;;;;;;;;6276692;28;20184;-62
2023/05/05 05:53:17;;;;;;;6.80;5.33;;;;;;;;;;6279206;28;20196;-62
2023/05/05 05:56:18;;;;;;;7.43;6.17;;;;;;;;;;6296292;28;20250;-62
2023/05/05 05:59:19;;;;;;;7.43;5.83;;;;;;;;;;6294424;28;20197;-62
2023/05/05 06:02:20;;;;;;;6.43;5.83;;;;;;;;;;6302002;28;20192;-62
2023/05/05 06:05:21;;;;;;;6.73;5.57;;;;;;;;;;6304927;28;20307;-62
2023/05/05 06:08:22;;;;;;;6.33;5.73;;;;;;;;;;6297246;28;20228;-62
2023/05/05 06:11:23;;;;;;;6.47;5.70;;;;;;;;;;6296477;28;20184;-62
2023/05/05 06:14:25;;;;;;;6.33;5.20;;;;;;;;;;6289965;28;20189;-62
2023/05/05 06:17:26;;;;;;;7.27;5.07;;;;;;;;;;6302470;28;20182;-62
2023/05/05 06:20:27;;;;;;;8.33;5.50;;;;;;;;;;6290740;28;20178;-62
2023/05/05 06:23:28;;;;;;;5.97;4.90;;;;;;;;;;6295739;28;20235;-62
2023/05/05 06:26:30;;;;;;;6.33;5.43;;;;;;;;;;6309339;28;20230;-62
2023/05/05 06:29:31;;;;;;;7.13;5.27;;;;;;;;;;6316043;28;20181;-63
2023/05/05 06:32:32;;;;;;;10.57;5.90;;;;;;;;;;6312453;28;20201;-62
2023/05/05 06:35:33;;;;;;;5.13;4.73;;;;;;;;;;6275956;28;20204;-62
2023/05/05 06:38:34;;;;;;;6.83;5.20;;;;;;;;;;6315254;28;20216;-62
2023/05/05 06:41:35;;;;;;;5.50;5.00;;;;;;;;;;6310792;28;20193;-62
2023/05/05 06:44:36;;;;;;;5.60;5.00;;;;;;;;;;6295815;28;20188;-63
2023/05/05 06:47:37;;;;;;;8.47;6.60;;;;;;;;;;6320348;28;20184;-64
2023/05/05 06:50:38;;;;;;;8.40;6.07;;;;;;;;;;6297142;28;20189;-63
2023/05/05 06:53:39;;;;;;;6.43;5.33;;;;;;;;;;6283590;28;20185;-63
2023/05/05 06:56:40;;;;;;;5.30;4.80;;;;;;;;;;6320069;28;20247;-63
2023/05/05 06:59:41;;;;;;;5.93;5.33;;;;;;;;;;6297499;28;20208;-64
2023/05/05 07:02:43;;;;;;;6.10;4.80;;;;;;;;;;6297504;28;20287;-64
2023/05/05 07:05:44;;;;;;;6.53;4.57;;;;;;;;;;6289846;28;20215;-64
2023/05/05 07:08:45;;;;;;;5.90;4.73;;;;;;;;;;6277193;28;20192;-61
2023/05/05 07:11:46;;;;;;;6.40;5.30;;;;;;;;;;6290489;28;20199;-61
2023/05/05 07:14:47;;;;;;;5.33;4.83;;;;;;;;;;6307983;28;20195;-61
2023/05/05 07:17:48;;;;;;;8.27;6.10;;;;;;;;;;6296492;28;20197;-61
2023/05/05 07:20:49;;;;;;;5.83;4.50;;;;;;;;;;6311877;28;20195;-62
2023/05/05 07:23:50;;;;;;;6.57;4.77;;;;;;;;;;6293996;28;20192;-63
2023/05/05 07:26:51;;;;;;;5.27;4.13;;;;;;;;;;6290579;28;20225;-63
2023/05/05 07:29:52;;;;;;;4.63;4.20;;;;;;;;;;6291795;28;20216;-62
2023/05/05 07:32:53;;;;;;;4.97;4.17;;;;;;;;;;6316470;28;20181;-62
2023/05/05 07:35:54;;;;;;;4.67;4.20;;;;;;;;;;6299880;28;20238;-62
2023/05/05 07:38:55;;;;;;;5.90;4.67;;;;;;;;;;6293747;28;20189;-63
2023/05/05 07:41:56;;;;;;;4.27;3.87;;;;;;;;;;6290747;28;20196;-62
2023/05/05 07:44:57;;;;;;;6.17;3.87;;;;;;;;;;6320773;28;20243;-62
2023/05/05 07:47:58;;;;;;;6.07;4.70;;;;;;;;;;6312033;28;20196;-63
2023/05/05 07:50:59;;;;;;;3.77;3.43;;;;;;;;;;6330456;28;20189;-63
2023/05/05 07:54:00;;;;;;;4.93;4.13;;;;;;;;;;6298019;28;20192;-63
2023/05/05 07:57:01;;;;;;;6.87;4.77;;;;;;;;;;6322050;28;20193;-62
2023/05/05 08:00:03;;;;;;;5.20;4.70;;;;;;;;;;6299817;28;20185;-63
2023/05/05 08:03:04;;;;;;;4.70;4.10;;;;;;;;;;6291359;28;20197;-63
2023/05/05 08:06:09;;;;;;;5.10;4.00;;;;;;;;;;6292367;28;20219;-63
2023/05/05 08:09:10;;;;;;;8.43;4.73;;;;;;;;;;6306243;28;20182;-62
2023/05/05 08:12:13;;;;;;;5.57;4.67;;;;;;;;;;6310209;28;20215;-63
2023/05/05 08:15:15;;;;;;;6.23;4.70;;;;;;;;;;6302635;28;20202;-62
2023/05/05 08:18:16;;;;;;;5.80;4.23;;;;;;;;;;6310492;28;20189;-63
2023/05/05 08:21:17;;;;;;;4.37;3.97;;;;;;;;;;6278274;28;20189;-62
2023/05/05 08:24:18;;;;;;;4.67;4.17;;;;;;;;;;6294800;28;20196;-62
2023/05/05 08:27:19;;;;;;;4.97;3.83;;;;;;;;;;6295505;28;20217;-62
2023/05/05 08:30:21;;;;;;;5.47;4.20;;;;;;;;;;6294733;28;20300;-62
2023/05/05 08:33:22;;;;;;;5.70;4.07;;;;;;;;;;6296656;28;20217;-63
2023/05/05 08:36:23;;;;;;;4.67;4.27;;;;;;;;;;6306331;28;20240;-63
2023/05/05 08:39:24;;;;;;;5.10;4.00;;;;;;;;;;6314509;28;20246;-63
2023/05/05 08:42:25;;;;;;;7.03;4.57;;;;;;;;;;6295103;28;20202;-63
2023/05/05 08:45:27;;;;;;;5.50;4.90;;;;;;;;;;6290227;28;20244;-63
2023/05/05 08:48:29;;;;;;;7.13;4.70;;;;;;;;;;6305423;28;20214;-63
2023/05/05 08:51:32;;;;;;;5.03;4.53;;;;;;;;;;6293955;28;20205;-63
2023/05/05 08:54:34;;;;;;;9.60;4.40;;;;;;;;;;6306708;28;20192;-63
2023/05/05 08:57:51;;;;;;;5.57;4.40;;;;;;;;;;6286557;28;20221;-63
2023/05/05 09:00:53;;;;;;;5.10;4.60;;;;;;;;;;6288513;28;20269;-63
2023/05/05 09:03:55;;;;;;;8.80;4.93;;;;;;;;;;6307097;28;20190;-63
2023/05/05 09:06:59;;;;;;;6.10;5.07;;;;;;;;;;6296494;28;20289;-63
2023/05/05 09:10:03;;;;;;;9.33;5.57;;;;;;;;;;6298838;28;20221;-63
2023/05/05 09:13:04;;;;;;;6.30;5.63;;;;;;;;;;6294826;28;20189;-62
2023/05/05 09:16:06;;;;;;;7.80;5.57;;;;;;;;;;6316371;28;20228;-62
2023/05/05 09:19:07;;;;;;;6.37;5.77;;;;;;;;;;6291668;28;20196;-63
2023/05/05 09:22:08;;;;;;;8.30;5.57;;;;;;;;;;6286309;28;20221;-63
2023/05/05 09:25:10;;;;;;;8.83;5.53;;;;;;;;;;6276848;28;20230;-62
2023/05/05 09:28:12;;;;;;;6.43;5.50;;;;;;;;;;6312853;28;20206;-62
2023/05/05 09:31:14;;;;;;;6.67;5.97;;;;;;;;;;6296736;28;20202;-62
2023/05/05 09:34:16;;;;;;;6.63;5.93;;;;;;;;;;6274887;28;20194;-62
2023/05/05 09:37:26;;;;;;;7.67;5.80;;;;;;;;;;6275931;28;20233;-62
2023/05/05 09:40:43;;;;;;;5.53;4.53;;;;;;;;;;6309586;28;20186;-62
2023/05/05 09:43:51;;;;;;;8.60;6.27;;;;;;;;;;6312546;28;20182;-62
2023/05/05 09:46:54;;;;;;;8.37;5.70;;;;;;;;;;6309946;28;20214;-62
2023/05/05 09:49:58;;;;;;;7.80;5.13;;;;;;;;;;6305342;28;20217;-62
2023/05/05 09:53:00;;;;;;;8.90;5.23;;;;;;;;;;6310875;28;20186;-63
2023/05/05 09:56:03;;;;;;;6.13;5.10;;;;;;;;;;6280075;28;20221;-63
2023/05/05 09:59:10;;;;;;;8.03;5.73;;;;;;;;;;6313000;28;20205;-63
2023/05/05 10:02:12;;;;;;;7.47;4.80;;;;;;;;;;6310602;28;20193;-63
2023/05/05 10:05:17;;;;;;;5.90;4.17;;;;;;;;;;6317927;28;20204;-63
2023/05/05 10:08:19;;;;;;;5.67;4.87;;;;;;;;;;6303239;28;20201;-63
2023/05/05 10:11:20;;;;;;;5.37;4.73;;;;;;;;;;6299141;28;20188;-64
2023/05/05 10:14:23;;;;;;;6.70;5.20;;;;;;;;;;6302094;28;20189;-64
2023/05/05 10:17:24;;;;;;;7.17;5.03;;;;;;;;;;6313360;28;20188;-62
2023/05/05 10:20:26;;;;;;;7.30;4.60;;;;;;;;;;6331293;28;20189;-62
2023/05/05 10:23:45;;;;;;;6.13;4.70;;;;;;;;;;6302748;28;20285;-62
2023/05/05 10:26:46;;;;;;;5.03;4.50;;;;;;;;;;6304692;28;20344;-62
2023/05/05 10:29:51;;;;;;;5.00;4.60;;;;;;;;;;6287115;28;20210;-63
2023/05/05 10:33:08;;;;;;;5.80;4.33;;;;;;;;;;6312410;28;20232;-62
2023/05/05 10:36:09;;;;;;;5.23;4.57;;;;;;;;;;6295449;28;20241;-63
2023/05/05 10:39:10;;;;;;;5.10;4.60;;;24.00;50.00;;;;;;6298418;28;20251;-62
2023/05/05 10:42:13;;;;;;;7.57;4.03;;;20.50;48.60;;;;;;6286090;28;20271;-62
2023/05/05 10:45:14;;;;;;;5.23;4.40;;;20.70;48.60;;;;;;6295896;28;20213;-63
2023/05/05 10:48:26;;;;;;;5.90;4.20;;;20.80;49.10;;;;;;6279268;28;20220;-62
2023/05/05 10:51:40;;;;;;;4.17;3.77;;;20.90;48.60;;;;;;6279442;28;20183;-62
2023/05/05 10:54:43;;;;;;;4.20;3.80;;;21.10;47.50;;;;;;6304177;28;20186;-62
2023/05/05 10:57:45;;;;;;;7.07;4.33;;;21.30;47.80;;;;;;6297817;28;20208;-62
2023/05/05 11:00:50;;;;;;;3.73;3.40;;;21.40;47.80;;;;;;6311485;28;20197;-63
2023/05/05 11:03:51;;;;;;;4.77;4.03;;;21.50;45.90;;;;;;6256978;28;20205;-63
2023/05/05 11:07:09;;;;;;;4.37;3.80;;;21.70;44.40;;;;;;6278778;28;20225;-63
2023/05/05 11:10:12;;;;;;;4.23;3.83;;;21.90;48.00;;;;;;6293270;28;20611;-63
2023/05/05 11:13:12;;;;;;;6.43;4.43;;;22.10;44.30;;;;;;6296932;28;20182;-63
2023/05/05 11:16:44;;;;;;;5.73;3.73;;;22.20;44.30;;;;;;6298285;28;20273;-63
2023/05/05 11:19:47;;;;;;;4.67;3.80;;;22.40;45.20;;;;;;6292186;28;20247;-63
2023/05/05 11:23:10;;;;;;;4.80;4.40;;;22.50;43.80;;;;;;6297206;28;20192;-63
2023/05/05 11:26:12;;;;;;;3.97;3.50;;;22.90;42.20;;;;;;6285094;28;20213;-63
2023/05/05 11:29:13;;;;;;;8.67;4.10;;;23.00;44.30;;;;;;6301459;28;20185;-63
2023/05/05 11:32:16;;;;;;;4.13;3.83;;;23.10;43.50;;;;;;6278923;28;20209;-63
2023/05/05 11:35:17;;;;;;;5.80;3.63;;;23.30;43.30;;;;;;6287237;28;20284;-63
2023/05/05 11:38:23;;;;;;;6.50;3.77;;;23.60;41.90;;;;;;6282309;28;20247;-63
2023/05/05 11:41:33;;;;;;;4.90;4.07;;;23.70;43.50;;;;;;6297682;28;20193;-63
2023/05/05 11:44:34;;;;;;;4.13;3.77;;;23.90;44.30;;;;;;6310866;28;20275;-63
2023/05/05 11:47:35;;;;;;;5.43;4.27;;;24.20;41.60;;;;;;6293282;28;20189;-63
2023/05/05 11:50:36;;;;;;;5.37;3.40;;;24.40;39.40;;;;;;6281664;28;20258;-63
2023/05/05 11:53:41;;;;;;;6.70;3.90;;;24.60;41.00;;;;;;6288188;28;20185;-63
2023/05/05 11:56:50;;;;;;;6.27;4.20;;;25.00;40.80;;;;;;6290260;28;20190;-63
2023/05/05 11:59:58;;;;;;;4.40;4.07;;;25.30;39.40;;;;;;6273958;28;20251;-63
2023/05/05 12:02:59;;;;;;;4.93;3.60;;;25.60;39.70;;;;;;6291815;28;20185;-63
2023/05/05 12:05:59;;;;;;;4.30;3.93;;;26.60;40.00;;;;;;6272514;28;20300;-63
2023/05/05 12:09:00;;;;;;;4.00;3.40;;;28.90;35.00;;;;;;6269814;28;20186;-63
2023/05/05 12:12:01;;;;;;;3.90;3.43;;;30.70;34.30;;;;;;6285163;28;20214;-63
2023/05/05 12:15:03;;;;;;;4.50;2.67;;;32.40;29.60;;;;;;6278918;28;20200;-65
2023/05/05 12:18:05;;;;;;;3.03;2.80;;;;;;;;;;6295482;28;20185;-62
2023/05/05 12:21:18;;;;;;;3.00;2.80;;;;;;;;;;6295218;28;20276;-63
2023/05/05 12:24:19;;;;;;;2.97;2.67;;;;;;;;;;6289843;28;20197;-61
2023/05/05 12:27:21;;;;;;;3.75;2.83;;;;;;;;;;6291986;28;20216;-61
2023/05/05 12:30:22;;;;;;;3.00;2.80;;;;;;;;;;6294553;28;20204;-61
2023/05/05 12:33:23;;;;;;;2.75;2.47;;;35.40;27.80;;;;;;6297656;28;20276;-61
2023/05/05 12:36:24;;;;;;;2.85;2.63;;;39.20;24.70;;;;;;6309163;28;20249;-61
2023/05/05 12:39:37;;;;;;;3.17;2.70;;;40.60;23.50;;;;;;6265290;28;20184;-62
2023/05/05 12:42:38;;;;;;;2.45;2.25;;;41.30;22.80;;;;;;6297134;28;20181;-62
2023/05/05 12:45:39;;;;;;;3.00;2.50;;;41.30;23.20;;;;;;6295316;28;20204;-62
2023/05/05 12:48:44;;;;;;;2.35;2.15;;;;;;;;;;6272098;28;20185;-63
2023/05/05 12:51:55;;;;;;;2.80;2.60;;;;;;;;;;6292488;28;20216;-62
2023/05/05 12:54:57;;;;;;;2.40;2.20;;;;;;;;;;6312239;28;20187;-63
2023/05/05 12:58:00;;;;;;;2.90;2.60;;;;;;;;;;6291606;28;20199;-62
2023/05/05 13:01:08;;;;;;;3.15;2.88;;;;;;;;;;6308590;28;20190;-61
2023/05/05 13:04:12;;;;;;;2.75;2.55;;;;;;;;;;6316893;28;20189;-61
2023/05/05 13:07:14;;;;;;;3.22;2.50;;;;;;;;;;6301326;28;20212;-61
2023/05/05 13:10:15;;;;;;;2.60;2.40;;;;;;;;;;6291715;28;20189;-61
2023/05/05 13:13:16;;;;;;;3.13;2.65;;;;;;;;;;6292274;28;20218;-61
2023/05/05 13:16:17;;;;;;;2.70;2.50;;;;;;;;;;6285264;28;20282;-61
2023/05/05 13:19:18;;;;;;;2.75;2.53;;;;;;;;;;6295452;28;20207;-61
2023/05/05 13:22:19;;;;;;;2.75;2.55;;;;;;;;;;6286555;28;20196;-61
2023/05/05 13:25:20;;;;;;;2.72;2.38;;;;;;;;;;6291936;28;20216;-61
2023/05/05 13:28:21;;;;;;;2.60;2.38;;;;;;;;;;6313330;28;20244;-61
2023/05/05 13:31:22;;;;;;;2.65;2.45;;;;;;;;;;6283366;28;20195;-61
2023/05/05 13:34:23;;;;;;;2.53;2.33;;;;;;;;;;6279601;28;20189;-61
2023/05/05 13:37:24;;;;;;;2.60;2.30;;;;;;;;;;6328568;28;20236;-61
2023/05/05 13:40:25;;;;;;;2.55;2.40;;;;;;;;;;6300434;28;20222;-64
2023/05/05 13:43:26;;;;;;;4.57;2.58;;;;;;;;;;6292669;28;20192;-66
2023/05/05 13:46:27;;;;;;;3.38;2.90;;;;;;;;;;6287247;28;20303;-65
2023/05/05 13:49:28;;;;;;;3.03;2.83;;;;;;;;;;6322769;28;20180;-65
2023/05/05 13:52:29;;;;;;;3.40;2.72;;;42.20;22.40;;;;;;6314708;28;20293;-65
2023/05/05 13:55:30;;;;;;;3.78;2.60;;;47.70;18.90;;;;;;6284551;28;20303;-66
2023/05/05 13:58:30;;;;;;;2.70;2.50;;;46.70;19.50;;;;;;6299369;28;20192;-66
2023/05/05 14:01:31;;;;;;;2.60;2.45;;;46.10;19.00;;;;;;6294013;28;20275;-66
2023/05/05 14:04:32;;;;;;;3.05;2.30;;;45.60;19.30;;;;;;6270679;28;20228;-66
2023/05/05 14:07:33;;;;;;;2.50;2.30;;;;;;;;;;6280305;28;20189;-65
2023/05/05 14:10:33;;;;;;;2.40;2.20;;;45.90;19.20;;;;;;6303997;28;20191;-65
2023/05/05 14:13:34;;;;;;;3.08;2.20;;;45.70;19.60;;;;;;6292136;28;20213;-65
2023/05/05 14:16:35;;;;;;;2.63;2.38;;;45.60;20.60;;;;;;6263247;28;20212;-66
2023/05/05 14:19:36;;;;;;;3.00;2.53;;;;;;;;;;6278570;28;20216;-66
2023/05/05 14:22:37;;;;;;;2.67;2.30;;;;;;;;;;6307557;28;20184;-65
2023/05/05 14:25:38;;;;;;;2.20;2.08;;;45.60;19.70;;;;;;6307625;28;20181;-63
2023/05/05 14:28:38;;;;;;;4.30;2.10;;;44.50;19.70;;;;;;6284027;28;20205;-64
2023/05/05 14:31:41;;;;;;;2.75;2.22;;;39.80;24.90;;;;;;6278863;28;20212;-64
2023/05/05 14:34:42;;;;;;;2.40;2.20;;;;;;;;;;6286546;28;20200;-63
2023/05/05 14:37:42;;;;;;;3.38;2.25;;;39.70;24.60;;;;;;6282391;28;20237;-64
2023/05/05 14:40:43;;;;;;;2.83;2.63;;;36.30;27.50;;;;;;6289157;28;20264;-63
2023/05/05 14:43:44;;;;;;;2.95;2.75;;;;;;;;;;6288425;28;20188;-63
2023/05/05 14:46:45;;;;;;;2.75;2.40;;;35.30;27.20;;;;;;6299669;28;20189;-63
2023/05/05 14:49:46;;;;;;;2.58;2.38;;;34.90;27.10;;;;;;6281856;28;20215;-63
2023/05/05 14:52:46;;;;;;;3.27;2.43;;;34.10;27.40;;;;;;6285613;28;20231;-63
2023/05/05 14:55:47;;;;;;;3.10;2.80;;;34.20;28.20;;;;;;6272566;28;20213;-63
2023/05/05 14:58:47;;;;;;;3.43;2.90;;;34.10;28.80;;;;;;6282006;28;20227;-63
2023/05/05 15:01:48;;;;;;;3.70;3.13;;;33.60;28.10;;;;;;6287827;28;20338;-63
2023/05/05 15:04:49;;;;;;;3.77;3.00;;;33.10;28.30;;;;;;6292838;28;20189;-63
2023/05/05 15:07:49;;;;;;;4.20;3.10;;;33.10;30.50;;;;;;6283438;28;20188;-63
2023/05/05 15:10:50;;;;;;;2.63;2.43;;;32.90;29.80;;;;;;6293644;28;20221;-63
2023/05/05 15:13:51;;;;;;;2.87;2.67;;;33.00;28.80;;;;;;6287711;28;20201;-63
2023/05/05 15:16:51;;;;;;;3.03;2.57;;;33.10;30.20;;;;;;6310324;28;20209;-61
2023/05/05 15:19:52;;;;;;;2.90;2.70;;;33.20;30.90;;;;;;6307919;28;20196;-64
2023/05/05 15:22:54;;;;;;;4.17;2.87;;;32.90;30.40;;;;;;6275759;28;20203;-63
2023/05/05 15:25:54;;;;;;;4.17;2.60;;;32.40;30.00;;;;;;6323984;28;20224;-63
2023/05/05 15:28:55;;;;;;;3.00;2.80;;;32.50;30.50;;;;;;6290749;28;20202;-63
2023/05/05 15:31:55;;;;;;;3.07;2.40;;;32.20;31.50;;;;;;6267830;28;20197;-62
2023/05/05 15:34:56;;;;;;;3.20;2.90;;;31.90;31.00;;;;;;6265977;28;20194;-62
2023/05/05 15:37:57;;;;;;;4.03;3.07;;;32.10;30.50;;;;;;6281760;28;20239;-62
2023/05/05 15:40:58;;;;;;;2.97;2.77;;;31.50;32.60;;;;;;6293910;28;20193;-62
2023/05/05 15:43:59;;;;;;;3.47;2.80;;;31.20;31.90;;;;;;6285926;28;20186;-63
2023/05/05 15:47:00;;;;;;;4.60;3.20;;;31.00;32.80;;;;;;6283946;28;20212;-62
2023/05/05 15:50:00;;;;;;;3.77;3.30;;;30.90;31.90;;;;;;6303064;28;20264;-63
2023/05/05 15:53:01;;;;;;;3.07;2.80;;;30.50;33.10;;;;;;6267850;28;20193;-63
2023/05/05 15:56:02;;;;;;;2.93;2.73;;;30.20;32.80;;;;;;6290675;28;20209;-63
2023/05/05 15:59:03;;;;;;;3.20;2.90;;;30.00;34.20;;;;;;6296922;28;20190;-63
2023/05/05 16:02:03;;;;;;;4.90;3.30;;;29.90;33.20;;;;;;6288230;28;20212;-63
2023/05/05 16:05:04;;;;;;;3.60;3.03;;;29.50;33.70;;;;;;6280727;28;20200;-63
2023/05/05 16:08:08;;;;;;;3.97;2.97;;;29.30;33.50;;;;;;6297352;28;20193;-64
2023/05/05 16:11:09;;;;;;;2.90;2.70;;;29.10;34.00;;;;;;6266216;28;20197;-64
2023/05/05 16:14:09;;;;;;;3.50;3.20;;;28.80;35.10;;;;;;6282031;28;20203;-65
2023/05/05 16:17:10;;;;;;;3.63;3.20;;;28.70;37.90;;;;;;6304364;28;20219;-64
2023/05/05 16:20:11;;;;;;;3.47;3.27;;;28.50;37.00;;;;;;6270597;28;20201;-63
2023/05/05 16:23:12;;;;;;;3.33;2.83;;;28.30;36.40;;;;;;6273344;28;20217;-63
2023/05/05 16:26:12;;;;;;;4.33;3.47;;;28.10;37.50;;;;;;6280363;28;20188;-64
2023/05/05 16:29:13;;;;;;;3.33;3.03;;;27.90;37.40;;;;;;6280149;28;20190;-64
2023/05/05 16:32:14;;;;;;;3.17;2.97;;;27.60;37.50;;;;;;6293104;28;20267;-64
2023/05/05 16:35:14;;;;;;;4.40;3.00;;;27.40;38.20;;;;;;6275612;28;20228;-64
2023/05/05 16:38:15;;;;;;;3.87;3.50;;;27.30;36.70;;;;;;6307814;28;20244;-63
2023/05/05 16:41:16;;;;;;;3.50;3.20;;;27.00;37.20;;;;;;6277898;28;20189;-62
2023/05/05 16:44:16;;;;;;;4.87;3.60;;;26.90;37.90;;;;;;6290899;28;20199;-63
2023/05/05 16:47:17;;;;;;;4.03;3.60;;;26.70;39.40;;;;;;6277470;28;20185;-63
2023/05/05 16:50:18;;;;;;;4.00;3.67;;;26.60;38.70;;;;;;6274201;28;20191;-63
2023/05/05 16:53:18;;;;;;;3.67;3.10;;;26.40;39.50;;;;;;6267918;28;20251;-63
2023/05/05 16:56:20;;;;;;;4.13;3.37;;;26.20;40.10;;;;;;6260591;28;20220;-62
2023/05/05 16:59:20;;;;;;;3.70;3.00;;;26.10;39.70;;;;;;6277007;28;20196;-63
2023/05/05 17:02:21;;;;;;;3.60;3.30;;;25.90;40.40;;;;;;6274594;28;20185;-63
2023/05/05 17:05:22;;;;;;;6.40;3.10;;;25.80;40.00;;;;;;6307237;28;20189;-63
2023/05/05 17:08:23;;;;;;;3.23;3.03;;;25.50;40.60;;;;;;6287506;28;20263;-66
2023/05/05 17:11:23;;;;;;;3.50;3.20;;;25.40;41.00;;;;;;6288420;28;20541;-65
2023/05/05 17:14:26;;;;;;;4.13;3.60;;;25.10;40.20;;;;;;6324663;28;20314;-64
2023/05/05 17:17:27;;;;;;;3.73;3.40;;;25.00;40.70;;;;;;6300545;28;20212;-64